Time;durP1;ratioP1;P1;durP2;ratioP2;P2;SDS_P1;SDS_P2;PMS_P1;PMS_P2;Temp;Humidity;BMP_temperature;BMP_pressure;BME280_temperature;BME280_humidity;BME280_pressure;Samples;Min_cycle;Max_cycle;Signal;HPM_P1;HPM_P2
2023/02/14 00:01:15;;;;;;;9.40;5.85;;;;;;;;;;5019965;28;20551;-79
2023/02/14 00:03:40;;;;;;;10.68;6.93;;;;;;;;;;5035171;28;20182;-80
2023/02/14 00:06:11;;;;;;;8.43;6.05;;;;;;;;;;5036925;28;20179;-80
2023/02/14 00:08:39;;;;;;;8.55;5.65;;;;;;;;;;5036060;28;20170;-80
2023/02/14 00:11:07;;;;;;;11.00;6.95;;;;;;;;;;5036966;28;20270;-80
2023/02/14 00:13:33;;;;;;;10.50;7.18;;;;;;;;;;5037707;28;20184;-80
2023/02/14 00:15:59;;;;;;;10.82;6.47;;;;;;;;;;5037652;28;20206;-80
2023/02/14 00:21:10;;;;;;;16.55;7.80;;;;;;;;;;5042958;28;20227;-80
2023/02/14 00:23:36;;;;;;;11.40;7.28;;;;;;;;;;5055585;28;20193;-80
2023/02/14 00:26:02;;;;;;;12.27;7.50;;;;;;;;;;5055127;28;20185;-79
2023/02/14 00:28:28;;;;;;;10.40;7.38;;;;;;;;;;5056146;28;20220;-79
2023/02/14 00:30:56;;;;;;;10.75;7.80;;;;;;;;;;5051037;28;20213;-81
2023/02/14 00:33:22;;;;;;;10.48;7.15;;;;;;;;;;5057419;28;20178;-79
2023/02/14 00:35:48;;;;;;;11.27;6.85;;;;;;;;;;5056811;28;20177;-79
2023/02/14 00:38:14;;;;;;;10.95;7.88;;;;;;;;;;5054949;28;20566;-79
2023/02/14 00:40:40;;;;;;;11.73;7.25;;;;;;;;;;5057450;28;20177;-82
2023/02/14 00:43:06;;;;;;;10.85;8.18;;;;;;;;;;5057007;28;20209;-79
2023/02/14 00:45:32;;;;;;;9.95;7.45;;;;;;;;;;5054626;28;20194;-79
2023/02/14 00:47:58;;;;;;;8.95;6.10;;;;;;;;;;5056879;28;20177;-79
2023/02/14 00:50:24;;;;;;;9.95;6.60;;;;;;;;;;5056068;28;20224;-79
2023/02/14 00:52:50;;;;;;;10.63;7.88;;;;;;;;;;5056316;28;20197;-80
2023/02/14 00:55:16;;;;;;;13.88;7.72;;;;;;;;;;5055578;28;20170;-79
2023/02/14 00:57:42;;;;;;;14.50;7.00;;;;;;;;;;5056012;28;20177;-79
2023/02/14 01:00:08;;;;;;;11.82;7.30;;;;;;;;;;5056471;28;20174;-82
2023/02/14 01:02:34;;;;;;;19.20;7.68;;;;;;;;;;5055972;28;20227;-79
2023/02/14 01:05:00;;;;;;;13.88;6.97;;;;;;;;;;5055857;28;20636;-81
2023/02/14 01:07:26;;;;;;;10.98;7.90;;;;;;;;;;5055093;28;20178;-81
2023/02/14 01:09:52;;;;;;;12.20;7.18;;;;;;;;;;5055832;28;20205;-82
2023/02/14 01:12:18;;;;;;;10.93;8.05;;;;;;;;;;5056902;28;20170;-80
2023/02/14 01:14:44;;;;;;;14.95;9.05;;;;;;;;;;5055993;28;20233;-81
2023/02/14 01:17:11;;;;;;;17.00;10.15;;;;;;;;;;5055779;28;20192;-81
2023/02/14 01:19:37;;;;;;;13.25;9.15;;;;;;;;;;5054648;28;20185;-80
2023/02/14 01:22:03;;;;;;;13.88;9.20;;;;;;;;;;5047147;28;20182;-80
2023/02/14 01:24:29;;;;;;;14.90;9.93;;;;;;;;;;5036506;28;20188;-80
2023/02/14 01:26:55;;;;;;;14.20;8.65;;;;;;;;;;5035205;28;20178;-81
2023/02/14 01:29:21;;;;;;;14.52;9.27;;;;;;;;;;5035114;28;20213;-80
2023/02/14 01:31:48;;;;;;;13.73;9.85;;;;;;;;;;5033818;28;20213;-79
2023/02/14 01:34:14;;;;;;;13.82;9.63;;;;;;;;;;5034527;28;20580;-79
2023/02/14 01:36:40;;;;;;;16.35;10.63;;;;;;;;;;5034824;28;20228;-81
2023/02/14 01:39:08;;;;;;;17.88;10.80;;;;;;;;;;5017681;28;20193;-80
2023/02/14 01:41:34;;;;;;;18.63;10.20;;;;;;;;;;5036590;28;20177;-80
2023/02/14 01:44:02;;;;;;;14.15;9.50;;;;;;;;;;5035941;28;20700;-81
2023/02/14 01:46:29;;;;;;;16.52;10.65;;;;;;;;;;5035822;28;20195;-80
2023/02/14 01:49:00;;;;;;;16.45;9.75;;;;;;;;;;5035646;28;20211;-82
2023/02/14 01:51:26;;;;;;;15.93;10.50;;;;;;;;;;5034790;28;20189;-80
2023/02/14 01:53:52;;;;;;;20.88;11.40;;;;;;;;;;5034849;28;20539;-81
2023/02/14 01:56:22;;;;;;;20.20;11.50;;;;;;;;;;5035282;28;20174;-79
2023/02/14 01:58:51;;;;;;;21.05;12.00;;;;;;;;;;5034622;28;20200;-80
2023/02/14 02:01:17;;;;;;;16.40;10.20;;;;;;;;;;5034526;28;20316;-80
2023/02/14 02:03:59;;;;;;;17.85;11.50;;;;;;;;;;5034774;28;20662;-80
2023/02/14 02:06:28;;;;;;;15.63;10.95;;;;;;;;;;5034974;28;20180;-80
2023/02/14 02:09:08;;;;;;;18.92;10.43;;;;;;;;;;5034608;28;20202;-80
2023/02/14 02:11:35;;;;;;;17.75;11.20;;;;;;;;;;5035998;28;20165;-80
2023/02/14 02:14:01;;;;;;;18.98;10.70;;;;;;;;;;5033406;28;20286;-80
2023/02/14 02:16:36;;;;;;;17.75;10.75;;;;;;;;;;5033754;28;20189;-80
2023/02/14 02:19:06;;;;;;;20.77;11.15;;;;;;;;;;5035424;28;20177;-80
2023/02/14 02:21:32;;;;;;;22.17;11.27;;;;;;;;;;5036206;28;20223;-80
2023/02/14 02:24:36;;;;;;;20.05;10.75;;;;;;;;;;5041427;28;20192;-83
2023/02/14 02:27:21;;;;;;;19.50;12.98;;;;;;;;;;4993027;28;20194;-80
2023/02/14 02:30:09;;;;;;;17.13;11.40;;;;;;;;;;4977196;28;20588;-80
2023/02/14 02:32:37;;;;;;;17.90;11.05;;;;;;;;;;5039750;28;20215;-81
2023/02/14 02:35:12;;;;;;;24.38;12.48;;;;;;;;;;5055126;28;20166;-80
2023/02/14 02:37:38;;;;;;;18.70;11.38;;;;;;;;;;5054546;28;20226;-80
2023/02/14 02:40:22;;;;;;;15.97;10.17;;;;;;;;;;5054308;28;20179;-80
2023/02/14 02:42:55;;;;;;;20.15;11.60;;;;;;;;;;5054765;28;20412;-81
2023/02/14 02:45:25;;;;;;;22.02;12.65;;;;;;;;;;5053409;28;20215;-80
2023/02/14 02:48:10;;;;;;;17.77;11.38;;;;;;;;;;5055112;28;20218;-80
2023/02/14 02:53:33;;;;;;;22.55;11.07;;;;;;;;;;5055215;28;20187;-80
2023/02/14 02:58:57;;;;;;;18.30;11.60;;;;;;;;;;5055234;28;20191;-80
2023/02/14 03:01:25;;;;;;;16.48;12.27;;;;;;;;;;5053785;28;20179;-79
2023/02/14 03:06:38;;;;;;;17.90;11.68;;;;;;;;;;5055273;28;20560;-80
2023/02/14 03:09:12;;;;;;;19.27;11.40;;;;;;;;;;5036748;28;20212;-80
2023/02/14 03:11:41;;;;;;;21.13;13.05;;;;;;;;;;5054188;28;20182;-79
2023/02/14 03:14:19;;;;;;;17.33;11.45;;;;;;;;;;5054836;28;20222;-80
2023/02/14 03:16:48;;;;;;;17.75;11.57;;;;;;;;;;5054231;28;20185;-78
2023/02/14 03:19:33;;;;;;;18.58;11.55;;;;;;;;;;5053816;28;20175;-79
2023/02/14 03:22:08;;;;;;;20.55;11.05;;;;;;;;;;5053417;28;20659;-79
2023/02/14 03:24:46;;;;;;;22.98;12.88;;;;;;;;;;5054943;28;20187;-80
2023/02/14 03:27:15;;;;;;;14.10;10.23;;;;;;;;;;5054935;28;20172;-81
2023/02/14 03:29:49;;;;;;;17.92;11.48;;;;;;;;;;5053560;28;20211;-79
2023/02/14 03:32:15;;;;;;;16.48;10.48;;;;;;;;;;5053078;28;20177;-80
2023/02/14 03:34:52;;;;;;;24.15;13.15;;;;;;;;;;5055448;28;20241;-80
2023/02/14 03:37:31;;;;;;;17.80;10.73;;;;;;;;;;5054721;28;20168;-80
2023/02/14 03:39:57;;;;;;;19.65;11.68;;;;;;;;;;5053621;28;20323;-80
2023/02/14 03:42:32;;;;;;;20.07;11.23;;;;;;;;;;5056990;28;20162;-79
2023/02/14 03:45:00;;;;;;;19.55;12.27;;;;;;;;;;5058900;28;21008;-80
2023/02/14 03:47:28;;;;;;;19.60;11.57;;;;;;;;;;5058450;28;20167;-79
2023/02/14 03:49:56;;;;;;;20.20;12.02;;;;;;;;;;5057573;28;20532;-80
2023/02/14 03:52:24;;;;;;;20.30;11.88;;;;;;;;;;5058469;28;20180;-79
2023/02/14 03:54:52;;;;;;;17.63;12.05;;;;;;;;;;5058584;28;20179;-80
2023/02/14 03:57:24;;;;;;;22.75;12.45;;;;;;;;;;5058298;28;20185;-80
2023/02/14 03:59:50;;;;;;;22.65;11.85;;;;;;;;;;5058497;28;20263;-80
2023/02/14 04:02:36;;;;;;;21.85;12.63;;;;;;;;;;5058785;28;20201;-80
2023/02/14 04:05:05;;;;;;;22.17;11.88;;;;;;;;;;5059338;28;20560;-80
2023/02/14 04:07:31;;;;;;;17.95;12.55;;;;;;;;;;5056517;28;20246;-80
2023/02/14 04:09:57;;;;;;;20.45;12.82;;;;;;;;;;5056645;28;20200;-80
2023/02/14 04:12:23;;;;;;;17.75;12.38;;;;;;;;;;5056799;28;20177;-80
2023/02/14 04:14:49;;;;;;;18.13;12.35;;;;;;;;;;5040460;28;20233;-80
2023/02/14 04:20:00;;;;;;;17.63;12.50;;;;;;;;;;5057636;28;20195;-80
2023/02/14 04:22:26;;;;;;;21.08;12.65;;;;;;;;;;5057727;28;20183;-80
2023/02/14 04:24:52;;;;;;;21.27;12.98;;;;;;;;;;5057969;28;20205;-80
2023/02/14 04:27:18;;;;;;;22.33;13.18;;;;;;;;;;5057368;28;20694;-81
2023/02/14 04:29:48;;;;;;;24.48;14.27;;;;;;;;;;5057219;28;20215;-80
2023/02/14 04:32:19;;;;;;;25.45;13.60;;;;;;;;;;5057729;28;20169;-81
2023/02/14 04:34:45;;;;;;;20.63;13.88;;;;;;;;;;5056890;28;20507;-81
2023/02/14 04:37:11;;;;;;;34.40;15.57;;;;;;;;;;5039827;28;20185;-81
2023/02/14 04:39:37;;;;;;;20.45;12.35;;;;;;;;;;5056401;28;20196;-80
2023/02/14 04:42:03;;;;;;;24.33;15.27;;;;;;;;;;5057778;28;20171;-80
2023/02/14 04:44:29;;;;;;;21.92;13.80;;;;;;;;;;5057922;28;20175;-80
2023/02/14 04:46:56;;;;;;;21.20;13.30;;;;;;;;;;5040224;28;20180;-80
2023/02/14 04:49:22;;;;;;;26.48;14.30;;;;;;;;;;5057138;28;20224;-80
2023/02/14 04:51:48;;;;;;;23.98;15.27;;;;;;;;;;5056053;28;20200;-80
2023/02/14 04:54:14;;;;;;;25.48;14.65;;;;;;;;;;5038339;28;20237;-81
2023/02/14 04:56:40;;;;;;;27.30;15.90;;;;;;;;;;5057669;28;20182;-80
2023/02/14 04:59:06;;;;;;;24.73;15.80;;;;;;;;;;5056314;28;20182;-82
2023/02/14 05:01:32;;;;;;;20.05;13.50;;;;;;;;;;5039627;28;20181;-80
2023/02/14 05:03:58;;;;;;;24.17;15.02;;;;;;;;;;5056102;28;20184;-80
2023/02/14 05:06:25;;;;;;;24.15;14.32;;;;;;;;;;5055761;28;20316;-80
2023/02/14 05:08:51;;;;;;;24.63;15.88;;;;;;;;;;5038938;28;20181;-80
2023/02/14 05:11:17;;;;;;;31.10;14.63;;;;;;;;;;5056006;28;20196;-80
2023/02/14 05:13:43;;;;;;;23.80;14.55;;;;;;;;;;5055351;28;20223;-81
2023/02/14 05:16:09;;;;;;;20.23;13.40;;;;;;;;;;5039360;28;20194;-80
2023/02/14 05:18:35;;;;;;;25.48;12.98;;;;;;;;;;5039685;28;20183;-80
2023/02/14 05:21:01;;;;;;;25.45;14.02;;;;;;;;;;5056153;28;20184;-81
2023/02/14 05:23:27;;;;;;;23.73;14.57;;;;;;;;;;5055353;28;20265;-80
2023/02/14 05:25:53;;;;;;;24.33;14.57;;;;;;;;;;5056773;28;20248;-80
2023/02/14 05:28:19;;;;;;;30.42;16.20;;;;;;;;;;5056462;28;20659;-80
2023/02/14 05:30:45;;;;;;;25.25;16.50;;;;;;;;;;5039626;28;20243;-80
2023/02/14 05:33:11;;;;;;;29.48;16.98;;;;;;;;;;5055978;28;20186;-80
2023/02/14 05:35:37;;;;;;;28.67;18.27;;;;;;;;;;5056712;28;20183;-80
2023/02/14 05:38:03;;;;;;;30.38;17.40;;;;;;;;;;5056818;28;20232;-80
2023/02/14 05:40:29;;;;;;;35.65;20.15;;;;;;;;;;5055494;28;20219;-80
2023/02/14 05:42:55;;;;;;;26.60;17.15;;;;;;;;;;5056619;28;20175;-80
2023/02/14 05:45:22;;;;;;;33.53;18.88;;;;;;;;;;5056056;28;20184;-80
2023/02/14 05:47:49;;;;;;;32.85;20.25;;;;;;;;;;5056722;28;20181;-80
2023/02/14 05:50:15;;;;;;;38.38;21.60;;;;;;;;;;5054586;28;20216;-80
2023/02/14 05:52:41;;;;;;;40.13;19.27;;;;;;;;;;5055778;28;20180;-79
2023/02/14 05:55:07;;;;;;;39.58;21.50;;;;;;;;;;5055612;28;20176;-80
2023/02/14 05:57:34;;;;;;;38.67;18.55;;;;;;;;;;5055057;28;20230;-80
2023/02/14 06:00:00;;;;;;;36.63;19.33;;;;;;;;;;5054986;28;20178;-80
2023/02/14 06:02:26;;;;;;;36.85;19.77;;;;;;;;;;5055108;28;20181;-80
2023/02/14 06:04:52;;;;;;;35.05;21.10;;;;;;;;;;5055325;28;20176;-80
2023/02/14 06:07:18;;;;;;;33.00;19.48;;;;;;;;;;5054439;28;20231;-80
2023/02/14 06:09:44;;;;;;;34.10;18.45;;;;;;;;;;5055934;28;20207;-80
2023/02/14 06:12:10;;;;;;;32.50;19.80;;;;;;;;;;5055028;28;20268;-80
2023/02/14 06:14:36;;;;;;;36.20;20.30;;;;;;;;;;5054811;28;20232;-80
2023/02/14 06:17:02;;;;;;;35.15;20.27;;;;;;;;;;5038332;28;20189;-80
2023/02/14 06:19:28;;;;;;;33.45;19.52;;;;;;;;;;5055971;28;20177;-80
2023/02/14 06:21:54;;;;;;;31.50;19.02;;;;;;;;;;5055248;28;20176;-80
2023/02/14 06:24:20;;;;;;;36.20;20.08;;;;;;;;;;5054986;28;20180;-80
2023/02/14 06:26:46;;;;;;;43.25;21.00;;;;;;;;;;5056434;28;20177;-80
2023/02/14 06:29:12;;;;;;;42.25;20.25;;;;;;;;;;5055817;28;20211;-83
2023/02/14 06:31:38;;;;;;;32.28;18.88;;;;;;;;;;5054540;28;20544;-79
2023/02/14 06:34:04;;;;;;;36.00;20.00;;;;;;;;;;5055266;28;20189;-80
2023/02/14 06:36:30;;;;;;;40.75;20.75;;;;;;;;;;5037746;28;20181;-79
2023/02/14 06:38:56;;;;;;;36.83;20.02;;;;;;;;;;5054687;28;20533;-79
2023/02/14 06:41:22;;;;;;;36.17;20.73;;;;;;;;;;5055566;28;20173;-80
2023/02/14 06:43:48;;;;;;;46.38;24.10;;;;;;;;;;5054820;28;20188;-79
2023/02/14 06:46:15;;;;;;;42.75;21.90;;;;;;;;;;5055840;28;20191;-80
2023/02/14 06:48:41;;;;;;;41.13;22.60;;;;;;;;;;5054474;28;20180;-79
2023/02/14 06:51:07;;;;;;;43.20;22.73;;;;;;;;;;5037843;28;20271;-79
2023/02/14 06:53:33;;;;;;;44.05;22.58;;;;;;;;;;5055750;28;20279;-79
2023/02/14 06:55:59;;;;;;;41.97;22.83;;;;;;;;;;5055652;28;20175;-79
2023/02/14 06:58:25;;;;;;;47.88;23.50;;;;;;;;;;5055043;28;20203;-80
2023/02/14 07:00:51;;;;;;;47.20;23.40;;;;;;;;;;5055915;28;20191;-79
2023/02/14 07:03:17;;;;;;;42.70;22.80;;;;;;;;;;5055323;28;20177;-79
2023/02/14 07:05:44;;;;;;;39.75;20.77;;;;;;;;;;5054794;28;20188;-79
2023/02/14 07:08:10;;;;;;;42.33;22.20;;;;;;;;;;5055989;28;20172;-80
2023/02/14 07:10:36;;;;;;;45.70;24.58;;;;;;;;;;5055643;28;20213;-79
2023/02/14 07:13:03;;;;;;;45.00;23.55;;;;;;;;;;5054604;28;20263;-80
2023/02/14 07:15:29;;;;;;;49.65;26.17;;;;;;;;;;5055156;28;20282;-79
2023/02/14 07:17:55;;;;;;;50.33;27.00;;;;;;;;;;5057862;28;20683;-80
2023/02/14 07:20:21;;;;;;;48.03;24.77;;;;;;;;;;5058352;28;20540;-80
2023/02/14 07:22:47;;;;;;;48.83;25.45;;;;;;;;;;5058618;28;20632;-79
2023/02/14 07:25:13;;;;;;;59.47;26.87;;;;;;;;;;5059544;28;20190;-79
2023/02/14 07:27:39;;;;;;;53.72;27.15;;;;;;;;;;5057942;28;20411;-80
2023/02/14 07:30:06;;;;;;;51.28;26.88;;;;;;;;;;5057454;28;20671;-79
2023/02/14 07:32:32;;;;;;;55.53;29.75;;;;;;;;;;5041444;28;20189;-80
2023/02/14 07:34:58;;;;;;;51.05;26.35;;;;;;;;;;5058154;28;20377;-80
2023/02/14 07:37:24;;;;;;;47.40;25.15;;;;;;;;;;5057506;28;20341;-80
2023/02/14 07:39:50;;;;;;;49.75;28.95;;;;;;;;;;5059932;28;20540;-80
2023/02/14 07:42:16;;;;;;;52.65;26.90;;;;;;;;;;5058989;28;20181;-80
2023/02/14 07:44:44;;;;;;;56.47;28.90;;;;;;;;;;5059047;28;20272;-80
2023/02/14 07:47:10;;;;;;;55.22;30.05;;;;;;;;;;5059143;28;20249;-79
2023/02/14 07:49:36;;;;;;;57.78;29.25;;;;;;;;;;5059110;28;20268;-80
2023/02/14 07:52:03;;;;;;;54.58;28.83;;;;;;;;;;5058198;28;20649;-79
2023/02/14 07:54:29;;;;;;;59.13;30.95;;;;;;;;;;5058950;28;20185;-79
2023/02/14 07:56:55;;;;;;;63.92;31.42;;;;;;;;;;5059530;28;20176;-79
2023/02/14 07:59:21;;;;;;;63.22;33.15;;;;;;;;;;5057640;28;20217;-79
2023/02/14 08:01:47;;;;;;;60.38;31.98;;;;;;;;;;5040803;28;20332;-80
2023/02/14 08:04:13;;;;;;;61.25;31.67;;;;;;;;;;5057806;28;20646;-80
2023/02/14 08:06:42;;;;;;;68.00;36.10;;;;;;;;;;5058450;28;20255;-80
2023/02/14 08:09:09;;;;;;;73.18;32.58;;;;;;;;;;5057119;28;20221;-80
2023/02/14 08:14:20;;;;;;;74.45;34.75;;;3.20;99.90;;;;;;5058547;28;20236;-81
2023/02/14 08:16:45;;;;;;;70.47;32.13;;;3.30;99.90;;;;;;5057684;28;20185;-80
2023/02/14 08:19:11;;;;;;;69.67;33.87;;;3.40;99.90;;;;;;5040677;28;20900;-80
2023/02/14 08:21:36;;;;;;;76.33;33.67;;;3.40;99.90;;;;;;5057348;28;20173;-80
2023/02/14 08:24:02;;;;;;;66.53;34.00;;;3.50;99.90;;;;;;5057024;28;20668;-80
2023/02/14 08:26:28;;;;;;;64.30;33.97;;;3.60;99.90;;;;;;5056822;28;20525;-80
2023/02/14 08:28:53;;;;;;;68.60;32.70;;;3.70;99.90;;;;;;5055920;28;20181;-79
2023/02/14 08:31:30;;;;;;;67.70;34.93;;;3.80;99.90;;;;;;5040365;28;20188;-81
2023/02/14 08:33:55;;;;;;;64.40;33.55;;;3.80;99.90;;;;;;5058808;28;20231;-79
2023/02/14 08:36:22;;;;;;;77.53;36.83;;;4.00;99.90;;;;;;5057321;28;20193;-80
2023/02/14 08:38:48;;;;;;;67.93;34.83;;;4.10;99.90;;;;;;5058017;28;20188;-79
2023/02/14 08:41:15;;;;;;;75.80;36.22;;;4.20;99.90;;;;;;5058203;28;20169;-79
2023/02/14 08:43:41;;;;;;;70.15;36.17;;;4.30;99.90;;;;;;5057723;28;20188;-79
2023/02/14 08:46:06;;;;;;;68.23;33.63;;;4.40;99.90;;;;;;5057893;28;20182;-79
2023/02/14 08:48:34;;;;;;;69.87;35.97;;;4.50;99.90;;;;;;5056473;28;20185;-80
2023/02/14 08:51:04;;;;;;;69.10;34.65;;;4.60;99.90;;;;;;5058473;28;20213;-79
2023/02/14 08:53:30;;;;;;;66.60;35.28;;;4.70;99.90;;;;;;5056720;28;20553;-79
2023/02/14 08:55:56;;;;;;;58.70;33.30;;;4.80;99.90;;;;;;5056690;28;20193;-79
2023/02/14 08:58:21;;;;;;;64.43;34.03;;;5.00;99.90;;;;;;5023481;28;20641;-81
2023/02/14 09:00:47;;;;;;;66.20;33.43;;;5.10;99.90;;;;;;5056968;28;20193;-79
2023/02/14 09:03:13;;;;;;;65.57;33.80;;;5.10;99.90;;;;;;5057906;28;20188;-79
2023/02/14 09:05:38;;;;;;;60.80;31.60;;;5.30;99.90;;;;;;5057883;28;20181;-79
2023/02/14 09:08:04;;;;;;;65.10;34.70;;;5.40;99.90;;;;;;5056412;28;20174;-79
2023/02/14 09:10:30;;;;;;;59.35;32.63;;;5.50;99.90;;;;;;5057128;28;20212;-80
2023/02/14 09:12:56;;;;;;;60.33;31.27;;;5.60;99.90;;;;;;5023533;28;20188;-79
2023/02/14 09:15:21;;;;;;;59.80;31.37;;;5.70;99.90;;;;;;5055790;28;20709;-87
2023/02/14 09:17:47;;;;;;;59.77;31.80;;;5.80;99.90;;;;;;5057312;28;20225;-79
2023/02/14 09:20:14;;;;;;;50.80;30.40;;;5.80;99.90;;;;;;5057500;28;20651;-79
2023/02/14 09:22:39;;;;;;;52.42;29.17;;;6.00;99.90;;;;;;5056831;28;20174;-80
2023/02/14 09:25:05;;;;;;;53.40;29.60;;;6.00;99.90;;;;;;5039792;28;20189;-80
2023/02/14 09:27:31;;;;;;;51.20;29.50;;;6.10;99.90;;;;;;5057086;28;20284;-80
2023/02/14 09:29:57;;;;;;;41.40;25.33;;;6.20;99.90;;;;;;5056697;28;20248;-80
2023/02/14 09:32:22;;;;;;;49.00;26.80;;;6.30;99.90;;;;;;5056739;28;20189;-84
2023/02/14 09:37:32;;;;;;;43.15;26.27;;;6.60;99.90;;;;;;5055738;28;20639;-79
2023/02/14 09:39:57;;;;;;;37.57;24.00;;;6.80;99.90;;;;;;5056398;28;20188;-80
2023/02/14 09:42:46;;;;;;;37.73;23.67;;;7.00;99.90;;;;;;5056577;28;20660;-85
2023/02/14 09:45:18;;;;;;;33.50;22.55;;;7.20;99.90;;;;;;5026985;28;20194;-80
2023/02/14 09:47:43;;;;;;;32.72;22.45;;;7.50;99.90;;;;;;5056152;28;20589;-80
2023/02/14 09:50:26;;;;;;;32.47;20.97;;;7.70;99.90;;;;;;5056263;28;20209;-80
2023/02/14 09:52:59;;;;;;;29.00;19.08;;;8.10;99.90;;;;;;5056923;28;20161;-80
2023/02/14 09:55:38;;;;;;;23.85;16.92;;;8.40;99.90;;;;;;5055957;28;20170;-81
2023/02/14 09:58:21;;;;;;;27.10;17.20;;;8.60;99.90;;;;;;5055814;28;20510;-80
2023/02/14 10:01:08;;;;;;;19.67;13.80;;;8.90;99.90;;;;;;5055584;28;20239;-81
2023/02/14 10:03:44;;;;;;;19.33;13.57;;;9.00;99.90;;;;;;5054254;28;20408;-80
2023/02/14 10:06:15;;;;;;;23.60;15.93;;;9.30;99.90;;;;;;5055761;28;20884;-80
2023/02/14 10:08:57;;;;;;;18.13;13.23;;;9.50;99.90;;;;;;5054399;28;20435;-80
2023/02/14 10:11:23;;;;;;;19.47;13.90;;;9.60;99.90;;;;;;5055817;28;20770;-80
2023/02/14 10:14:10;;;;;;;18.40;13.70;;;9.90;99.90;;;;;;5055341;28;20503;-81
2023/02/14 10:16:42;;;;;;;21.67;13.90;;;10.10;99.90;;;;;;5055553;28;20404;-81
2023/02/14 10:19:43;;;;;;;20.20;15.07;;;10.10;99.90;;;;;;5055398;28;20411;-81
2023/02/14 10:22:18;;;;;;;21.57;14.60;;;10.10;99.90;;;;;;5054771;28;20475;-80
2023/02/14 10:24:49;;;;;;;18.30;13.27;;;10.40;99.90;;;;;;5054996;28;20419;-81
2023/02/14 10:27:38;;;;;;;24.90;15.00;;;10.60;99.90;;;;;;5055341;28;20383;-81
2023/02/14 10:30:15;;;;;;;16.77;12.40;;;10.80;99.90;;;;;;5055133;28;20517;-81
2023/02/14 10:32:47;;;;;;;16.60;12.10;;;11.20;99.90;;;;;;5053920;28;20403;-81
2023/02/14 10:35:32;;;;;;;14.40;11.07;;;11.60;99.90;;;;;;5054821;28;20394;-81
2023/02/14 10:38:16;;;;;;;18.87;12.80;;;11.80;99.90;;;;;;5054699;28;20714;-82
2023/02/14 10:41:11;;;;;;;19.63;14.57;;;12.10;99.90;;;;;;5052890;28;20763;-81
2023/02/14 10:43:40;;;;;;;20.47;14.50;;;12.40;99.90;;;;;;5053723;28;20402;-82
2023/02/14 10:46:38;;;;;;;17.13;12.57;;;12.70;99.90;;;;;;5052910;28;20501;-81
2023/02/14 10:49:31;;;;;;;16.77;13.30;;;12.70;99.90;;;;;;5052801;28;21008;-82
2023/02/14 10:52:14;;;;;;;15.83;11.80;;;13.00;99.90;;;;;;5054687;28;20491;-82
2023/02/14 10:54:43;;;;;;;15.60;12.80;;;13.00;99.90;;;;;;5057059;28;20387;-81
2023/02/14 10:57:17;;;;;;;16.40;12.70;;;13.40;99.90;;;;;;5058559;28;20386;-81
2023/02/14 10:59:55;;;;;;;15.60;11.43;;;13.50;99.90;;;;;;5057994;28;20386;-81
2023/02/14 11:02:31;;;;;;;17.40;10.73;;;13.60;99.90;;;;;;5057846;28;20520;-81
2023/02/14 11:04:58;;;;;;;18.50;12.60;;;14.00;99.90;;;;;;5058031;28;20489;-81
2023/02/14 11:07:24;;;;;;;15.97;12.43;;;14.50;99.90;;;;;;5058566;28;20462;-81
2023/02/14 11:09:49;;;;;;;16.03;12.30;;;14.70;99.90;;;;;;5056447;28;20848;-81
2023/02/14 11:12:36;;;;;;;16.43;13.30;;;15.00;99.90;;;;;;5057258;28;20183;-81
2023/02/14 11:15:18;;;;;;;17.37;12.63;;;15.00;99.90;;;;;;5058062;28;20308;-81
2023/02/14 11:17:43;;;;;;;15.00;11.30;;;15.40;99.90;;;;;;5056405;28;20448;-81
2023/02/14 11:20:18;;;;;;;18.00;13.40;;;15.70;99.90;;;;;;5058009;28;20394;-81
2023/02/14 11:22:44;;;;;;;17.30;12.17;;;16.30;99.90;;;;;;5057678;28;20169;-80
2023/02/14 11:25:30;;;;;;;16.20;12.63;;;16.20;99.90;;;;;;5057781;28;20381;-80
2023/02/14 11:28:06;;;;;;;17.23;13.20;;;16.60;99.90;;;;;;5057759;28;20165;-81
2023/02/14 11:30:38;;;;;;;17.70;12.20;;;;;;;;;;5057371;28;20462;-82
2023/02/14 11:33:04;;;;;;;16.00;12.73;;;18.10;99.90;;;;;;5057681;28;20432;-81
2023/02/14 11:35:35;;;;;;;17.80;12.97;;;;;;;;;;5056036;28;20427;-84
2023/02/14 11:38:05;;;;;;;17.40;13.90;;;18.70;99.90;;;;;;5057439;28;20363;-81
2023/02/14 11:40:35;;;;;;;16.60;12.50;;;19.00;99.90;;;;;;5056709;28;20491;-85
2023/02/14 11:43:10;;;;;;;15.50;13.10;;;19.10;99.90;;;;;;5057164;28;20394;-81
2023/02/14 11:45:41;;;;;;;15.73;12.30;;;19.10;99.90;;;;;;5056997;28;20401;-81
2023/02/14 11:48:18;;;;;;;15.70;12.07;;;18.70;99.90;;;;;;5057314;28;20394;-80
2023/02/14 11:50:55;;;;;;;16.20;11.20;;;18.90;99.90;;;;;;5056539;28;20812;-79
2023/02/14 11:53:25;;;;;;;17.87;12.53;;;18.50;99.90;;;;;;5057242;28;20427;-80
2023/02/14 11:55:54;;;;;;;14.23;11.70;;;18.20;99.90;;;;;;5055626;28;20487;-80
2023/02/14 11:58:38;;;;;;;17.00;12.63;;;17.50;99.90;;;;;;5056858;28;20412;-80
2023/02/14 12:01:06;;;;;;;17.03;11.27;;;17.10;99.90;;;;;;5056755;28;20926;-80
2023/02/14 12:03:42;;;;;;;13.90;12.13;;;17.10;99.90;;;;;;5054859;28;20454;-83
2023/02/14 12:06:08;;;;;;;14.50;12.40;;;;;;;;;;5056908;28;20429;-80
2023/02/14 12:08:37;;;;;;;20.17;11.23;;;14.40;99.90;;;;;;5038800;28;20431;-81
2023/02/14 12:11:24;;;;;;;15.93;11.87;;;;;;;;;;5056377;28;20496;-80
2023/02/14 12:13:53;;;;;;;17.17;13.33;;;;;;;;;;5054621;28;20438;-80
2023/02/14 12:16:24;;;;;;;17.50;13.77;;;;;;;;;;5055459;28;20467;-80
2023/02/14 12:19:02;;;;;;;14.10;11.30;;;16.60;99.90;;;;;;5056412;28;20716;-80
2023/02/14 12:21:35;;;;;;;16.23;12.33;;;;;;;;;;5056251;28;20428;-80
2023/02/14 12:24:07;;;;;;;16.57;12.00;;;;;;;;;;5056020;28;20795;-81
2023/02/14 12:26:35;;;;;;;14.87;11.63;;;16.50;99.90;;;;;;5056179;28;20385;-84
2023/02/14 12:29:04;;;;;;;17.20;13.70;;;16.70;99.90;;;;;;5054806;28;20424;-80
2023/02/14 12:31:30;;;;;;;14.30;10.90;;;17.30;99.90;;;;;;5055916;28;20426;-80
2023/02/14 12:33:56;;;;;;;15.50;12.10;;;17.60;99.90;;;;;;5054132;28;20423;-80
2023/02/14 12:36:49;;;;;;;15.13;13.17;;;17.00;99.90;;;;;;5055445;28;20382;-80
2023/02/14 12:39:44;;;;;;;17.93;14.60;;;17.50;99.90;;;;;;5056027;28;20173;-80
2023/02/14 12:42:40;;;;;;;18.90;14.90;;;17.70;99.90;;;;;;5025804;28;20775;-80
2023/02/14 12:45:31;;;;;;;18.20;13.53;;;18.20;99.90;;;;;;5054344;28;20782;-77
2023/02/14 12:48:43;;;;;;;19.33;15.60;;;18.10;99.90;;;;;;5054173;28;21099;-80
2023/02/14 12:51:24;;;;;;;18.60;14.63;;;;;;;;;;5054085;28;20464;-80
2023/02/14 12:54:15;;;;;;;21.00;15.77;;;18.40;99.90;;;;;;5054993;28;20387;-80
2023/02/14 12:56:57;;;;;;;20.50;15.10;;;18.60;99.90;;;;;;5053439;28;20890;-80
2023/02/14 12:59:46;;;;;;;22.10;15.40;;;19.00;99.90;;;;;;5055033;28;20426;-80
2023/02/14 13:02:27;;;;;;;19.17;15.90;;;18.80;99.90;;;;;;5055447;28;20431;-79
2023/02/14 13:05:13;;;;;;;18.27;15.00;;;;;;;;;;5053553;28;20460;-79
2023/02/14 13:08:00;;;;;;;19.80;15.40;;;19.10;99.90;;;;;;5054738;28;20439;-80
2023/02/14 13:10:50;;;;;;;18.10;15.10;;;19.50;99.90;;;;;;5055145;28;20433;-79
2023/02/14 13:13:50;;;;;;;22.23;15.30;;;19.60;99.90;;;;;;5053805;28;20493;-79
2023/02/14 13:16:27;;;;;;;22.43;16.90;;;19.80;99.90;;;;;;5054060;28;20407;-80
2023/02/14 13:19:19;;;;;;;18.63;15.50;;;19.70;99.90;;;;;;5053169;28;20845;-80
2023/02/14 13:21:45;;;;;;;17.90;14.70;;;20.60;99.90;;;;;;5054084;28;20445;-79
2023/02/14 13:24:25;;;;;;;20.40;15.30;;;20.00;99.90;;;;;;5054647;28;20439;-80
2023/02/14 13:27:04;;;;;;;19.47;15.20;;;20.20;99.90;;;;;;5054425;28;20395;-79
2023/02/14 13:29:53;;;;;;;19.50;15.50;;;20.00;99.90;;;;;;5053129;28;20814;-81
2023/02/14 13:32:21;;;;;;;19.17;14.77;;;;;;;;;;5054466;28;20375;-80
2023/02/14 13:34:47;;;;;;;20.37;15.30;;;;;;;;;;5054161;28;20423;-80
2023/02/14 13:37:16;;;;;;;18.27;14.47;;;;;;;;;;5053834;28;20740;-79
2023/02/14 13:39:45;;;;;;;19.93;14.40;;;;;;;;;;5054114;28;20416;-79
2023/02/14 13:42:11;;;;;;;21.00;14.10;;;20.50;99.90;;;;;;5054013;28;20404;-79
2023/02/14 13:44:41;;;;;;;18.70;14.67;;;;;;;;;;5052786;28;20471;-79
2023/02/14 13:47:14;;;;;;;19.13;14.43;;;;;;;;;;5052582;28;20427;-79
2023/02/14 13:49:45;;;;;;;18.37;14.37;;;;;;;;;;5052318;28;21079;-80
2023/02/14 13:52:11;;;;;;;16.97;12.93;;;20.40;99.90;;;;;;5052991;28;20416;-79
2023/02/14 13:54:46;;;;;;;16.90;13.63;;;;;;;;;;5052828;28;20408;-79
2023/02/14 13:57:40;;;;;;;20.17;14.87;;;;;;;;;;5052589;28;20180;-79
2023/02/14 14:00:18;;;;;;;18.20;14.50;;;;;;;;;;5049751;28;20398;-79
2023/02/14 14:02:51;;;;;;;17.33;12.97;;;20.60;99.90;;;;;;5052313;28;20490;-79
2023/02/14 14:05:26;;;;;;;18.70;13.30;;;;;;;;;;5052376;28;20428;-79
2023/02/14 14:08:12;;;;;;;16.10;12.17;;;;;;;;;;5053303;28;20386;-79
2023/02/14 14:10:43;;;;;;;19.33;14.00;;;;;;;;;;5053390;28;20460;-79
2023/02/14 14:13:09;;;;;;;16.33;12.90;;;21.10;99.90;;;;;;5053439;28;20415;-80
2023/02/14 14:15:34;;;;;;;15.80;13.53;;;21.50;99.90;;;;;;5052129;28;20819;-79
2023/02/14 14:18:12;;;;;;;14.87;13.17;;;;;;;;;;5035512;28;20270;-79